ADDS METAR Data INFO
IDs: Format: Raw Decoded Include TAF

Data at: 0715 UTC 19 Oct 2017

KDLZ 190655Z AUTO 17004KT 10SM CLR 10/06 A3019 RMK AO2
KDLZ 190636Z AUTO 18004KT 10SM CLR 10/06 A3020 RMK AO2
KDLZ 190615Z AUTO 20004KT 10SM CLR 11/06 A3020 RMK AO2
KDLZ 190555Z AUTO 19004KT 10SM CLR 10/05 A3019 RMK AO2
KDLZ 190536Z AUTO 22003KT 10SM CLR 11/05 A3019 RMK AO2
KDLZ 190515Z AUTO 22003KT 10SM CLR 11/05 A3019 RMK AO2
KDLZ 190455Z AUTO 22004KT 10SM CLR 11/06 A3019 RMK AO2
KDLZ 190436Z AUTO 21005KT 10SM CLR 12/06 A3019 RMK AO2
KDLZ 190415Z AUTO 21006KT 10SM CLR 12/05 A3019 RMK AO2
KDLZ 190356Z AUTO 21006KT 10SM CLR 12/06 A3019 RMK AO2
KDLZ 190336Z AUTO 19005KT 10SM CLR 13/05 A3019 RMK AO2
KDLZ 190316Z AUTO 20006KT 10SM CLR 13/05 A3019 RMK AO2
KDLZ 190255Z AUTO 00000KT 10SM CLR 13/05 A3019 RMK AO2
KDLZ 190236Z AUTO 19005KT 10SM CLR 13/05 A3019 RMK AO2
KDLZ 190216Z AUTO 00000KT 10SM CLR 13/05 A3019 RMK AO2
KDLZ 190155Z AUTO 00000KT 10SM CLR 13/05 A3019 RMK AO2
KDLZ 190136Z AUTO 00000KT 10SM CLR 13/05 A3019 RMK AO2
KDLZ 190116Z AUTO 00000KT 10SM CLR 13/05 A3020 RMK AO2
KDLZ 190055Z AUTO 00000KT 10SM CLR 13/05 A3020 RMK AO2
KDLZ 190036Z AUTO 00000KT 10SM CLR 13/04 A3020 RMK AO2
KDLZ 190016Z AUTO 18003KT 10SM CLR 15/05 A3020 RMK AO2
KDLZ 182355Z AUTO 00000KT 10SM CLR 15/05 A3020 RMK AO2
KDLZ 182336Z AUTO 15005KT 10SM CLR 15/05 A3020 RMK AO2
KDLZ 182316Z AUTO 16004KT 10SM CLR 15/04 A3020 RMK AO2
KDLZ 182255Z AUTO 17004KT 10SM CLR 17/03 A3020 RMK AO2
KDLZ 182236Z AUTO 19004KT 10SM CLR 18/03 A3020 RMK AO2
KDLZ 182216Z AUTO 18005KT 10SM CLR 19/03 A3020 RMK AO2
KDLZ 182155Z AUTO 19007KT 10SM CLR 20/03 A3020 RMK AO2
KDLZ 182136Z AUTO 17010KT 10SM CLR 20/03 A3020 RMK AO2
KDLZ 182116Z AUTO 20010KT 10SM CLR 20/03 A3020 RMK AO2
KDLZ 182055Z AUTO 18009KT 10SM CLR 20/03 A3021 RMK AO2
KDLZ 182036Z AUTO 19006KT 10SM CLR 20/03 A3022 RMK AO2
KDLZ 182016Z AUTO 19008KT 10SM CLR 20/03 A3022 RMK AO2
KDLZ 181955Z AUTO 17009KT 10SM CLR 20/03 A3023 RMK AO2
KDLZ 181936Z AUTO 19010KT 10SM CLR 20/03 A3023 RMK AO2
KDLZ 181916Z AUTO 20007KT 10SM CLR 20/03 A3024 RMK AO2
KDLZ 181855Z AUTO 19008G15KT 10SM CLR 20/03 A3024 RMK AO2
KDLZ 181836Z AUTO 19009KT 10SM CLR 20/03 A3026 RMK AO2
KDLZ 181816Z AUTO 17007KT 7SM CLR 20/03 A3027 RMK AO2
KDLZ 181755Z AUTO 20010G15KT 10SM CLR 19/03 A3028 RMK AO2
KDLZ 181736Z AUTO 18007G14KT 10SM CLR 18/04 A3029 RMK AO2
KDLZ 181716Z AUTO 20010KT 7SM CLR 18/03 A3030 RMK AO2
KDLZ 181655Z AUTO 21009KT 134V224 10SM CLR 18/05 A3031 RMK AO2
KDLZ 181636Z AUTO 19007KT 154V214 10SM CLR 17/05 A3032 RMK AO2
KDLZ 181615Z AUTO 21007KT 10SM CLR 17/05 A3032 RMK AO2
KDLZ 181555Z AUTO 18007KT 10SM CLR 16/05 A3032 RMK AO2
KDLZ 181536Z AUTO 17007KT 10SM CLR 16/05 A3033 RMK AO2
KDLZ 181515Z AUTO 20006KT 10SM CLR 15/06 A3033 RMK AO2
KDLZ 181455Z AUTO 20006KT 10SM CLR 14/06 A3034 RMK AO2
KDLZ 181436Z AUTO 00000KT 10SM CLR 13/06 A3034 RMK AO2
KDLZ 181415Z AUTO 18003KT 10SM CLR 12/06 A3034 RMK AO2
KDLZ 181355Z AUTO 18005KT 10SM CLR 11/06 A3033 RMK AO2
KDLZ 181336Z AUTO 17005KT 10SM CLR 10/06 A3033 RMK AO2
KDLZ 181315Z AUTO 00000KT 10SM CLR 08/06 A3033 RMK AO2
KDLZ 181255Z AUTO 00000KT 10SM CLR 07/06 A3033 RMK AO2
KDLZ 181236Z AUTO 00000KT 10SM CLR 06/05 A3032 RMK AO2
KDLZ 181215Z AUTO 00000KT 10SM CLR 04/03 A3032 RMK AO2
KDLZ 181155Z AUTO 00000KT 10SM CLR 04/03 A3032 RMK AO2
KDLZ 181136Z AUTO 00000KT 10SM CLR 04/03 A3031 RMK AO2
KDLZ 181115Z AUTO 00000KT 10SM CLR 05/04 A3031 RMK AO2
KDLZ 181055Z AUTO 00000KT 10SM CLR 04/03 A3031 RMK AO2
KDLZ 181036Z AUTO 00000KT 10SM CLR 05/03 A3030 RMK AO2
KDLZ 181015Z AUTO 00000KT 10SM CLR 05/03 A3030 RMK AO2
KDLZ 180955Z AUTO 00000KT 10SM CLR 04/03 A3030 RMK AO2
KDLZ 180936Z AUTO 00000KT 10SM CLR 04/03 A3030 RMK AO2
KDLZ 180915Z AUTO 00000KT 10SM CLR 04/03 A3030 RMK AO2
KDLZ 180855Z AUTO 00000KT 10SM CLR 05/04 A3030 RMK AO2
KDLZ 180836Z AUTO 00000KT 10SM CLR 05/04 A3029 RMK AO2
KDLZ 180815Z AUTO 00000KT 10SM CLR 05/03 A3029 RMK AO2
KDLZ 180755Z AUTO 00000KT 10SM CLR 05/03 A3029 RMK AO2
KDLZ 180736Z AUTO 00000KT 10SM CLR 06/04 A3029 RMK AO2
KDLZ 180715Z AUTO 00000KT 10SM CLR 06/03 A3029 RMK AO2
KDLZ 180655Z AUTO 00000KT 10SM CLR 05/03 A3029 RMK AO2
KDLZ 180636Z AUTO 00000KT 10SM CLR 05/03 A3029 RMK AO2
KDLZ 180615Z AUTO 00000KT 10SM CLR 06/03 A3029 RMK AO2
KDLZ 180555Z AUTO 00000KT 10SM CLR 06/04 A3029 RMK AO2
KDLZ 180536Z AUTO 00000KT 10SM CLR 05/03 A3029 RMK AO2
KDLZ 180515Z AUTO 00000KT 10SM CLR 05/03 A3029 RMK AO2
KDLZ 180455Z AUTO 00000KT 10SM CLR 06/03 A3029 RMK AO2
KDLZ 180436Z AUTO 00000KT 10SM CLR 06/04 A3029 RMK AO2
KDLZ 180415Z AUTO 00000KT 10SM CLR 07/03 A3028 RMK AO2
KDLZ 180355Z AUTO 00000KT 10SM CLR 07/04 A3029 RMK AO2
KDLZ 180336Z AUTO 00000KT 10SM CLR 08/04 A3029 RMK AO2
KDLZ 180315Z AUTO 00000KT 10SM CLR 08/03 A3028 RMK AO2
KDLZ 180255Z AUTO 00000KT 10SM CLR 08/03 A3028 RMK AO2
KDLZ 180236Z AUTO 00000KT 10SM CLR 09/03 A3027 RMK AO2
KDLZ 180215Z AUTO 00000KT 10SM CLR 09/03 A3027 RMK AO2
KDLZ 180155Z AUTO 00000KT 10SM CLR 10/03 A3027 RMK AO2
KDLZ 180136Z AUTO 00000KT 10SM CLR 11/03 A3027 RMK AO2
KDLZ 180115Z AUTO 00000KT 10SM CLR 11/03 A3026 RMK AO2
KDLZ 180055Z AUTO 00000KT 10SM CLR 12/03 A3026 RMK AO2
KDLZ 180036Z AUTO 00000KT 10SM CLR 11/03 A3026 RMK AO2
KDLZ 180015Z AUTO 00000KT 5SM HZ CLR 12/03 A3025 RMK AO2
KDLZ 172355Z AUTO 00000KT 10SM CLR 12/03 A3025 RMK AO2
KDLZ 172336Z AUTO 00000KT 7SM CLR 13/03 A3025 RMK AO2
KDLZ 172315Z AUTO 22004KT 10SM CLR 13/03 A3025 RMK AO2
KDLZ 172255Z AUTO 23003KT 10SM CLR 15/02 A3025 RMK AO2
KDLZ 172236Z AUTO 24005KT 10SM CLR 16/02 A3024 RMK AO2
KDLZ 172215Z AUTO 24005KT 10SM CLR 17/02 A3024 RMK AO2
KDLZ 172155Z AUTO 24006KT 7SM CLR 18/02 A3025 RMK AO2
KDLZ 172136Z AUTO 23006KT 10SM CLR 18/02 A3025 RMK AO2
KDLZ 172115Z AUTO 25005KT 10SM CLR 18/02 A3025 RMK AO2
KDLZ 172055Z AUTO 22008KT 10SM CLR 18/02 A3026 RMK AO2
KDLZ 172036Z AUTO 22006KT 10SM CLR 18/02 A3026 RMK AO2
KDLZ 172015Z AUTO 21011KT 10SM CLR 18/02 A3026 RMK AO2
KDLZ 171955Z AUTO 21006KT 10SM CLR 18/02 A3026 RMK AO2
KDLZ 171936Z AUTO 22008KT 10SM CLR 18/02 A3026 RMK AO2